createdAt,value
2023-05-17T00:03:31.173Z,47.83
2023-05-17T00:06:19.652Z,52.70
2023-05-17T00:09:46.253Z,47.90
2023-05-17T00:15:26.958Z,47.33
2023-05-17T00:18:28.265Z,45.25
2023-05-17T00:24:28.364Z,41.50
2023-05-17T00:27:17.874Z,39.40
2023-05-17T00:29:51.411Z,38.60
2023-05-17T00:32:20.809Z,36.92
2023-05-17T00:39:01.296Z,36.50
2023-05-17T00:41:30.987Z,36.85
2023-05-17T00:44:00.126Z,38.20
2023-05-17T00:49:47.135Z,36.63
2023-05-17T00:52:16.416Z,33.88
2023-05-17T00:54:46.618Z,31.50
2023-05-17T00:58:14.780Z,31.05
2023-05-17T01:08:52.264Z,35.75
2023-05-17T01:26:58.657Z,43.67
2023-05-17T01:30:19.013Z,44.17
2023-05-17T01:33:10.820Z,46.58
2023-05-17T01:35:59.192Z,48.22
2023-05-17T01:48:25.195Z,42.75
2023-05-17T01:54:31.734Z,41.40
2023-05-17T02:06:48.328Z,40.10
2023-05-17T02:15:54.230Z,46.13
2023-05-17T02:19:10.013Z,44.13
2023-05-17T02:22:01.655Z,42.45
2023-05-17T02:27:51.879Z,41.17
2023-05-17T02:39:57.384Z,32.55
2023-05-17T02:42:50.913Z,32.20
2023-05-17T03:01:59.494Z,24.60
2023-05-17T03:18:19.684Z,21.35
2023-05-17T03:21:19.299Z,25.55
2023-05-17T03:24:19.375Z,30.20
2023-05-17T03:27:09.322Z,30.65
2023-05-17T03:48:18.458Z,33.63
2023-05-17T03:51:09.919Z,36.90
2023-05-17T03:57:28.049Z,20.45
2023-05-17T04:00:29.603Z,18.35
2023-05-17T04:06:15.887Z,12.73
2023-05-17T04:09:15.293Z,11.98
2023-05-17T04:14:55.830Z,15.48
2023-05-17T04:21:16.971Z,11.93
2023-05-17T04:30:29.728Z,7.68
2023-05-17T04:42:53.365Z,8.05
2023-05-17T04:58:26.789Z,14.93
2023-05-17T05:04:21.636Z,13.18
2023-05-17T05:07:18.944Z,12.70
2023-05-17T05:22:46.098Z,17.33
2023-05-17T05:26:13.656Z,16.75
2023-05-17T05:43:26.380Z,15.35
2023-05-17T05:46:16.318Z,16.27
2023-05-17T05:53:18.281Z,12.65
2023-05-17T05:59:44.793Z,14.40
2023-05-17T06:19:50.807Z,96.53
2023-05-17T06:22:48.777Z,48.75
2023-05-17T06:29:25.690Z,10.20
2023-05-17T06:35:23.827Z,11.85
2023-05-17T06:38:29.992Z,13.43
2023-05-17T06:40:59.823Z,16.45
2023-05-17T06:43:29.021Z,12.95
2023-05-17T06:45:59.515Z,12.40
2023-05-17T06:48:29.306Z,11.32
2023-05-17T06:51:25.633Z,9.93
2023-05-17T06:54:29.028Z,11.82
2023-05-17T06:57:31.586Z,11.00
2023-05-17T07:00:23.525Z,10.77
2023-05-17T07:03:19.038Z,10.95
2023-05-17T07:09:38.786Z,8.75
2023-05-17T07:12:48.811Z,12.55
2023-05-17T07:46:24.147Z,7.63
2023-05-17T07:56:04.359Z,7.38
2023-05-17T08:01:16.490Z,8.15
2023-05-17T08:14:18.264Z,7.78
2023-05-17T08:16:52.804Z,7.68
2023-05-17T08:19:30.232Z,7.35
2023-05-17T08:22:00.273Z,8.18
2023-05-17T08:30:56.812Z,7.72
2023-05-17T08:33:28.710Z,8.77
2023-05-17T08:36:00.148Z,9.65
2023-05-17T08:39:01.449Z,8.43
2023-05-17T08:42:56.734Z,9.00
2023-05-17T08:45:29.248Z,9.25
2023-05-17T08:47:59.575Z,9.38
2023-05-17T08:50:31.601Z,9.07
2023-05-17T08:57:19.478Z,9.98
2023-05-17T09:11:37.813Z,9.45
2023-05-17T09:24:32.482Z,8.40
2023-05-17T10:11:50.962Z,8.77
2023-05-17T10:19:06.033Z,7.35
2023-05-17T10:25:28.080Z,6.00
2023-05-17T10:35:12.057Z,6.70
2023-05-17T10:38:10.005Z,6.85
2023-05-17T10:41:45.708Z,8.02
2023-05-17T11:16:39.868Z,7.07
2023-05-17T11:34:23.833Z,10.80
2023-05-17T12:09:32.488Z,10.30
2023-05-17T12:12:28.978Z,10.15
2023-05-17T12:15:21.913Z,8.57
2023-05-17T12:18:12.251Z,9.25
2023-05-17T12:21:02.487Z,10.80
2023-05-17T12:23:55.116Z,10.00
2023-05-17T12:26:48.962Z,9.80
2023-05-17T12:29:38.505Z,10.45
2023-05-17T12:32:26.882Z,9.63
2023-05-17T12:34:56.253Z,9.45
2023-05-17T12:37:25.369Z,10.13
2023-05-17T12:39:54.969Z,9.15
2023-05-17T12:42:24.035Z,8.82
2023-05-17T12:44:53.299Z,8.88
2023-05-17T12:47:22.571Z,9.05
2023-05-17T12:49:58.201Z,9.02
2023-05-17T12:52:27.694Z,10.65
2023-05-17T12:55:00.702Z,9.70
2023-05-17T12:57:29.988Z,11.65
2023-05-17T13:00:08.846Z,11.27
2023-05-17T13:02:38.404Z,9.43
2023-05-17T13:05:22.421Z,9.93
2023-05-17T13:07:51.757Z,9.40
2023-05-17T13:10:28.764Z,8.85
2023-05-17T13:13:02.094Z,9.43
2023-05-17T13:15:35.004Z,8.95
2023-05-17T13:18:19.064Z,10.25
2023-05-17T13:20:52.426Z,9.50
2023-05-17T13:23:21.916Z,10.68
2023-05-17T13:25:51.623Z,9.10
2023-05-17T13:28:21.061Z,10.45
2023-05-17T13:30:53.271Z,9.23
2023-05-17T13:33:22.651Z,10.73
2023-05-17T13:35:51.809Z,10.07
2023-05-17T13:38:21.043Z,10.32
2023-05-17T13:40:50.060Z,16.08
2023-05-17T13:43:19.877Z,11.25
2023-05-17T13:45:52.138Z,9.95
2023-05-17T13:48:22.152Z,11.80
2023-05-17T13:50:52.018Z,13.63
2023-05-17T13:53:21.525Z,10.50
2023-05-17T13:55:51.036Z,11.85
2023-05-17T13:58:20.044Z,13.05
2023-05-17T14:00:49.428Z,10.10
2023-05-17T14:03:18.541Z,12.60
2023-05-17T14:05:50.803Z,11.25
2023-05-17T14:08:21.257Z,14.80
2023-05-17T14:10:50.731Z,13.75
2023-05-17T14:13:19.675Z,12.80
2023-05-17T14:15:49.054Z,13.38
2023-05-17T14:18:18.247Z,13.25
2023-05-17T14:20:48.125Z,15.68
2023-05-17T14:23:17.238Z,16.75
2023-05-17T14:25:46.358Z,19.15
2023-05-17T14:28:16.076Z,14.35
2023-05-17T14:30:45.769Z,13.63
2023-05-17T14:33:14.947Z,18.33
2023-05-17T14:35:44.174Z,15.95
2023-05-17T14:38:13.243Z,16.52
2023-05-17T14:40:42.429Z,17.63
2023-05-17T14:43:11.620Z,16.08
2023-05-17T14:45:40.806Z,14.38
2023-05-17T14:48:10.041Z,13.60
2023-05-17T14:54:39.132Z,13.82
2023-05-17T14:57:09.369Z,13.55
2023-05-17T14:59:39.027Z,14.23
2023-05-17T15:02:08.740Z,13.73
2023-05-17T15:04:38.693Z,12.70
2023-05-17T15:07:08.000Z,13.77
2023-05-17T15:13:36.437Z,15.40
2023-05-17T15:16:05.743Z,15.73
2023-05-17T15:18:34.783Z,15.68
2023-05-17T15:21:04.289Z,14.55
2023-05-17T15:23:33.461Z,17.13
2023-05-17T15:29:48.688Z,17.27
2023-05-17T15:32:18.030Z,16.70
2023-05-17T15:34:47.164Z,17.45
2023-05-17T15:37:16.597Z,17.65
2023-05-17T15:39:45.876Z,16.35
2023-05-17T15:42:15.186Z,20.45
2023-05-17T15:44:44.394Z,20.83
2023-05-17T15:47:13.616Z,19.95
2023-05-17T15:49:42.644Z,30.63
2023-05-17T15:52:13.933Z,183.05
2023-05-17T15:54:43.423Z,96.82
2023-05-17T15:57:12.414Z,102.03
2023-05-17T15:59:41.915Z,84.00
2023-05-17T16:02:10.900Z,65.38
2023-05-17T16:04:40.110Z,55.97
2023-05-17T16:07:09.120Z,63.78
2023-05-17T16:09:38.413Z,33.03
2023-05-17T16:12:07.847Z,30.13
2023-05-17T16:14:38.152Z,32.30
2023-05-17T16:17:07.436Z,31.50
2023-05-17T16:19:36.657Z,26.48
2023-05-17T16:22:06.116Z,17.08
2023-05-17T16:24:35.233Z,27.50
2023-05-17T16:27:07.239Z,15.18
2023-05-17T16:29:40.837Z,13.88
2023-05-17T16:32:10.148Z,14.30
2023-05-17T16:34:39.184Z,12.68
2023-05-17T16:37:08.485Z,13.25
2023-05-17T16:39:40.668Z,12.95
2023-05-17T16:44:38.665Z,13.40
2023-05-17T16:47:07.983Z,11.82
2023-05-17T16:49:37.972Z,14.80
2023-05-17T16:52:07.335Z,13.68
2023-05-17T16:54:39.769Z,13.65
2023-05-17T16:57:09.673Z,11.95
2023-05-17T16:59:39.078Z,13.98
2023-05-17T17:02:09.276Z,11.20
2023-05-17T17:04:38.595Z,10.98
2023-05-17T17:07:07.770Z,14.07
2023-05-17T17:09:38.560Z,11.75
2023-05-17T17:12:20.499Z,12.43
2023-05-17T17:14:53.430Z,11.43
2023-05-17T17:17:22.548Z,12.88
2023-05-17T17:19:52.203Z,12.43
2023-05-17T17:22:21.268Z,9.23
2023-05-17T17:24:50.570Z,12.10
2023-05-17T17:27:19.612Z,10.02
2023-05-17T17:29:48.878Z,12.13
2023-05-17T17:32:17.970Z,13.70
2023-05-17T17:34:47.209Z,11.70
2023-05-17T17:37:16.629Z,11.70
2023-05-17T17:39:45.941Z,12.45
2023-05-17T17:42:15.061Z,10.15
2023-05-17T17:44:44.450Z,7.72
2023-05-17T17:47:13.843Z,6.65
2023-05-17T17:49:43.176Z,10.57
2023-05-17T17:52:12.306Z,11.32
2023-05-17T17:54:41.695Z,8.73
2023-05-17T17:57:11.056Z,14.80
2023-05-17T17:59:41.315Z,7.43
2023-05-17T18:02:11.095Z,13.40
2023-05-17T18:04:41.763Z,12.98
2023-05-17T18:07:13.344Z,8.90
2023-05-17T18:09:43.013Z,8.35
2023-05-17T18:12:12.356Z,13.02
2023-05-17T18:14:41.980Z,16.05
2023-05-17T18:17:11.531Z,11.35
2023-05-17T18:19:40.699Z,7.47
2023-05-17T18:22:10.147Z,10.23
2023-05-17T18:24:39.202Z,6.85
2023-05-17T18:27:14.171Z,11.13
2023-05-17T18:29:43.651Z,10.93
2023-05-17T18:32:13.570Z,8.38
2023-05-17T18:34:42.716Z,8.43
2023-05-17T18:37:12.525Z,6.78
2023-05-17T18:39:41.842Z,13.30
2023-05-17T18:42:10.896Z,8.95
2023-05-17T18:44:40.247Z,9.60
2023-05-17T18:47:09.727Z,11.85
2023-05-17T18:49:46.094Z,7.32
2023-05-17T18:52:15.551Z,7.75
2023-05-17T18:54:44.981Z,7.85
2023-05-17T18:57:16.053Z,11.13
2023-05-17T18:59:45.526Z,13.52
2023-05-17T19:02:17.587Z,10.52
2023-05-17T19:07:15.930Z,22.98
2023-05-17T19:09:45.519Z,39.85
2023-05-17T19:12:15.246Z,21.45
2023-05-17T19:14:51.743Z,12.25
2023-05-17T19:17:21.159Z,8.40
2023-05-17T19:19:50.218Z,5.55
2023-05-17T19:22:19.686Z,5.35
2023-05-17T19:24:48.870Z,5.57
2023-05-17T19:27:20.726Z,5.85
2023-05-17T19:29:50.043Z,7.13
2023-05-17T19:32:21.064Z,6.00
2023-05-17T19:34:50.777Z,5.40
2023-05-17T19:37:20.087Z,5.63
2023-05-17T19:39:49.454Z,6.03
2023-05-17T19:42:19.258Z,6.32
2023-05-17T19:44:48.805Z,5.50
2023-05-17T19:47:18.207Z,6.35
2023-05-17T19:49:47.416Z,6.22
2023-05-17T19:52:17.468Z,4.80
2023-05-17T19:54:48.940Z,4.82
2023-05-17T19:57:18.190Z,2.65
2023-05-17T19:59:50.039Z,2.58
2023-05-17T20:02:20.898Z,2.95
2023-05-17T20:04:50.079Z,2.97
2023-05-17T20:07:19.603Z,3.00
2023-05-17T20:09:50.726Z,2.97
2023-05-17T20:12:20.025Z,3.10
2023-05-17T20:14:49.732Z,3.65
2023-05-17T20:17:19.275Z,3.15
2023-05-17T20:19:48.823Z,3.05
2023-05-17T20:22:18.914Z,2.25
2023-05-17T20:24:49.013Z,2.13
2023-05-17T20:27:18.531Z,1.40
2023-05-17T20:29:48.169Z,2.05
2023-05-17T20:32:18.402Z,2.78
2023-05-17T20:34:47.426Z,3.20
2023-05-17T20:37:16.592Z,2.47
2023-05-17T20:39:47.426Z,2.83
2023-05-17T20:42:20.727Z,3.35
2023-05-17T20:44:50.438Z,4.18
2023-05-17T20:47:19.431Z,3.17
2023-05-17T20:49:51.207Z,3.17
2023-05-17T20:52:38.206Z,3.60
2023-05-17T20:55:12.888Z,3.22
2023-05-17T20:57:42.988Z,3.33
2023-05-17T21:00:13.244Z,2.72
2023-05-17T21:02:42.904Z,3.72
2023-05-17T21:05:12.296Z,2.75
2023-05-17T21:07:41.621Z,3.95
2023-05-17T21:10:11.211Z,3.67
2023-05-17T21:12:41.252Z,3.97
2023-05-17T21:15:17.143Z,3.08
2023-05-17T21:17:49.033Z,3.92
2023-05-17T21:20:18.416Z,3.67
2023-05-17T21:22:47.518Z,4.35
2023-05-17T21:25:16.853Z,4.80
2023-05-17T21:27:46.044Z,3.70
2023-05-17T21:30:15.241Z,3.72
2023-05-17T21:32:44.617Z,3.85
2023-05-17T21:35:13.822Z,3.53
2023-05-17T21:37:43.289Z,3.88
2023-05-17T21:40:12.765Z,4.03
2023-05-17T21:42:42.758Z,3.95
2023-05-17T21:45:13.963Z,4.03
2023-05-17T21:47:43.395Z,3.78
2023-05-17T21:50:12.677Z,4.95
2023-05-17T21:52:42.047Z,4.50
2023-05-17T21:55:11.792Z,4.13
2023-05-17T21:57:41.048Z,3.88
2023-05-17T22:00:14.017Z,3.17
2023-05-17T22:02:46.489Z,4.30
2023-05-17T22:05:16.050Z,4.85
2023-05-17T22:07:45.159Z,4.60
2023-05-17T22:10:15.467Z,4.18
2023-05-17T22:12:44.710Z,4.15
2023-05-17T22:15:14.639Z,3.40
2023-05-17T22:17:51.683Z,4.50
2023-05-17T22:20:25.196Z,3.90
2023-05-17T22:22:55.247Z,3.70
2023-05-17T22:25:24.488Z,3.67
2023-05-17T22:27:53.865Z,4.00
2023-05-17T22:30:23.289Z,3.83
2023-05-17T22:32:55.903Z,3.97
2023-05-17T22:35:25.808Z,3.90
2023-05-17T22:37:54.801Z,5.05
2023-05-17T22:40:24.704Z,5.90
2023-05-17T22:42:53.729Z,11.13
2023-05-17T22:45:23.565Z,10.95
2023-05-17T22:47:55.283Z,7.10
2023-05-17T22:50:25.611Z,4.15
2023-05-17T22:52:55.379Z,6.20
2023-05-17T22:55:27.202Z,10.63
2023-05-17T22:57:56.782Z,11.23
2023-05-17T23:00:28.623Z,11.38
2023-05-17T23:02:58.645Z,10.52
2023-05-17T23:05:27.761Z,11.75
2023-05-17T23:07:57.102Z,11.55
2023-05-17T23:10:26.289Z,9.43
2023-05-17T23:12:59.611Z,9.82
2023-05-17T23:15:29.811Z,11.13
2023-05-17T23:18:00.590Z,13.98
2023-05-17T23:20:30.471Z,12.00
2023-05-17T23:23:00.575Z,8.35
2023-05-17T23:25:30.707Z,7.47
2023-05-17T23:28:00.059Z,8.00
2023-05-17T23:30:30.721Z,8.27
2023-05-17T23:33:01.218Z,8.68
2023-05-17T23:35:37.546Z,7.82
2023-05-17T23:38:08.266Z,5.95
2023-05-17T23:40:38.163Z,5.72
2023-05-17T23:43:07.248Z,5.80
2023-05-17T23:45:36.650Z,5.18
2023-05-17T23:48:05.795Z,5.10
2023-05-17T23:50:34.990Z,4.97
2023-05-17T23:53:05.639Z,5.53
2023-05-17T23:55:34.835Z,5.05
2023-05-17T23:58:03.996Z,5.20
